sensor_id;sensor_type;location;lat;lon;timestamp;P1;durP1;ratioP1;P2;durP2;ratioP2
40675;SDS011;26359;48.750;9.314;2022-09-20T00:00:31;5.55;;;5.03;;
40675;SDS011;26359;48.750;9.314;2022-09-20T00:02:57;8.00;;;5.72;;
40675;SDS011;26359;48.750;9.314;2022-09-20T00:05:22;6.07;;;4.88;;
40675;SDS011;26359;48.750;9.314;2022-09-20T00:07:48;7.05;;;4.10;;
40675;SDS011;26359;48.750;9.314;2022-09-20T00:10:13;5.10;;;4.60;;
40675;SDS011;26359;48.750;9.314;2022-09-20T00:12:39;4.93;;;4.53;;
40675;SDS011;26359;48.750;9.314;2022-09-20T00:15:05;7.18;;;4.82;;
40675;SDS011;26359;48.750;9.314;2022-09-20T00:17:31;7.95;;;5.50;;
40675;SDS011;26359;48.750;9.314;2022-09-20T00:19:56;6.90;;;5.43;;
40675;SDS011;26359;48.750;9.314;2022-09-20T00:22:22;6.47;;;5.60;;
40675;SDS011;26359;48.750;9.314;2022-09-20T00:24:47;5.82;;;5.25;;
40675;SDS011;26359;48.750;9.314;2022-09-20T00:27:13;6.43;;;5.03;;
40675;SDS011;26359;48.750;9.314;2022-09-20T00:29:38;6.45;;;5.20;;
40675;SDS011;26359;48.750;9.314;2022-09-20T00:32:04;6.47;;;5.45;;
40675;SDS011;26359;48.750;9.314;2022-09-20T00:34:30;7.38;;;5.15;;
40675;SDS011;26359;48.750;9.314;2022-09-20T00:37:14;5.78;;;4.97;;
40675;SDS011;26359;48.750;9.314;2022-09-20T00:39:40;5.03;;;4.57;;
40675;SDS011;26359;48.750;9.314;2022-09-20T00:42:05;11.90;;;5.20;;
40675;SDS011;26359;48.750;9.314;2022-09-20T00:44:52;6.85;;;4.78;;
40675;SDS011;26359;48.750;9.314;2022-09-20T00:50:42;6.53;;;5.18;;
40675;SDS011;26359;48.750;9.314;2022-09-20T00:52:53;6.43;;;4.80;;
40675;SDS011;26359;48.750;9.314;2022-09-20T00:55:26;5.32;;;4.22;;
40675;SDS011;26359;48.750;9.314;2022-09-20T00:57:52;6.63;;;4.43;;
40675;SDS011;26359;48.750;9.314;2022-09-20T01:00:18;8.00;;;5.15;;
40675;SDS011;26359;48.750;9.314;2022-09-20T01:02:48;5.15;;;4.25;;
40675;SDS011;26359;48.750;9.314;2022-09-20T01:05:17;5.50;;;4.47;;
40675;SDS011;26359;48.750;9.314;2022-09-20T01:07:43;7.05;;;4.72;;
40675;SDS011;26359;48.750;9.314;2022-09-20T01:10:11;6.88;;;5.22;;
40675;SDS011;26359;48.750;9.314;2022-09-20T01:12:37;7.45;;;4.97;;
40675;SDS011;26359;48.750;9.314;2022-09-20T01:15:07;5.75;;;5.10;;
40675;SDS011;26359;48.750;9.314;2022-09-20T01:17:34;6.95;;;4.63;;
40675;SDS011;26359;48.750;9.314;2022-09-20T01:25:45;7.10;;;5.53;;
40675;SDS011;26359;48.750;9.314;2022-09-20T01:28:20;5.45;;;4.95;;
40675;SDS011;26359;48.750;9.314;2022-09-20T01:30:49;5.22;;;4.57;;
40675;SDS011;26359;48.750;9.314;2022-09-20T01:33:41;6.75;;;4.82;;
40675;SDS011;26359;48.750;9.314;2022-09-20T01:38:44;5.10;;;4.05;;
40675;SDS011;26359;48.750;9.314;2022-09-20T01:43:54;4.90;;;4.20;;
40675;SDS011;26359;48.750;9.314;2022-09-20T01:46:31;6.75;;;4.95;;
40675;SDS011;26359;48.750;9.314;2022-09-20T01:49:04;8.05;;;4.38;;
40675;SDS011;26359;48.750;9.314;2022-09-20T01:54:52;5.80;;;5.30;;
40675;SDS011;26359;48.750;9.314;2022-09-20T01:58:01;5.63;;;4.53;;
40675;SDS011;26359;48.750;9.314;2022-09-20T02:00:47;6.60;;;4.68;;
40675;SDS011;26359;48.750;9.314;2022-09-20T02:15:25;8.10;;;5.03;;
40675;SDS011;26359;48.750;9.314;2022-09-20T02:26:43;5.25;;;4.40;;
40675;SDS011;26359;48.750;9.314;2022-09-20T02:29:32;5.30;;;4.65;;
40675;SDS011;26359;48.750;9.314;2022-09-20T02:51:51;6.32;;;3.92;;
40675;SDS011;26359;48.750;9.314;2022-09-20T03:00:01;4.60;;;4.13;;
40675;SDS011;26359;48.750;9.314;2022-09-20T03:05:26;7.47;;;4.60;;
40675;SDS011;26359;48.750;9.314;2022-09-20T03:10:54;4.65;;;4.22;;
40675;SDS011;26359;48.750;9.314;2022-09-20T03:13:52;6.93;;;4.30;;
40675;SDS011;26359;48.750;9.314;2022-09-20T03:16:39;5.57;;;4.03;;
40675;SDS011;26359;48.750;9.314;2022-09-20T03:25:19;3.95;;;3.55;;
40675;SDS011;26359;48.750;9.314;2022-09-20T03:28:07;5.13;;;3.80;;
40675;SDS011;26359;48.750;9.314;2022-09-20T03:46:45;8.55;;;4.70;;
40675;SDS011;26359;48.750;9.314;2022-09-20T04:04:05;5.53;;;3.70;;
40675;SDS011;26359;48.750;9.314;2022-09-20T04:13:08;5.18;;;3.42;;
40675;SDS011;26359;48.750;9.314;2022-09-20T04:16:14;8.60;;;3.70;;
40675;SDS011;26359;48.750;9.314;2022-09-20T04:22:02;9.45;;;3.72;;
40675;SDS011;26359;48.750;9.314;2022-09-20T04:27:04;5.65;;;3.83;;
40675;SDS011;26359;48.750;9.314;2022-09-20T04:38:22;8.52;;;3.83;;
40675;SDS011;26359;48.750;9.314;2022-09-20T04:41:02;6.40;;;3.90;;
40675;SDS011;26359;48.750;9.314;2022-09-20T05:00:39;6.15;;;4.30;;
40675;SDS011;26359;48.750;9.314;2022-09-20T05:03:35;6.35;;;3.85;;
40675;SDS011;26359;48.750;9.314;2022-09-20T05:14:40;6.07;;;3.63;;
40675;SDS011;26359;48.750;9.314;2022-09-20T05:26:28;5.57;;;3.28;;
40675;SDS011;26359;48.750;9.314;2022-09-20T05:29:23;6.50;;;4.35;;
40675;SDS011;26359;48.750;9.314;2022-09-20T05:32:04;4.70;;;3.17;;
40675;SDS011;26359;48.750;9.314;2022-09-20T05:34:45;5.53;;;3.95;;
40675;SDS011;26359;48.750;9.314;2022-09-20T05:43:16;6.20;;;3.50;;
40675;SDS011;26359;48.750;9.314;2022-09-20T05:45:57;6.20;;;3.63;;
40675;SDS011;26359;48.750;9.314;2022-09-20T06:00:00;7.13;;;3.92;;
40675;SDS011;26359;48.750;9.314;2022-09-20T06:07:54;8.90;;;4.25;;
40675;SDS011;26359;48.750;9.314;2022-09-20T06:13:26;6.75;;;4.15;;
40675;SDS011;26359;48.750;9.314;2022-09-20T06:16:01;6.40;;;4.20;;
40675;SDS011;26359;48.750;9.314;2022-09-20T06:24:19;5.75;;;4.30;;
40675;SDS011;26359;48.750;9.314;2022-09-20T06:27:08;10.20;;;5.00;;
40675;SDS011;26359;48.750;9.314;2022-09-20T06:29:39;10.57;;;4.15;;
40675;SDS011;26359;48.750;9.314;2022-09-20T06:32:09;7.95;;;4.28;;
40675;SDS011;26359;48.750;9.314;2022-09-20T06:34:35;5.30;;;4.53;;
40675;SDS011;26359;48.750;9.314;2022-09-20T06:37:06;10.40;;;4.20;;
40675;SDS011;26359;48.750;9.314;2022-09-20T06:43:13;5.80;;;4.40;;
40675;SDS011;26359;48.750;9.314;2022-09-20T06:45:39;11.70;;;3.88;;
40675;SDS011;26359;48.750;9.314;2022-09-20T06:48:06;8.00;;;4.13;;
40675;SDS011;26359;48.750;9.314;2022-09-20T06:50:37;4.97;;;4.28;;
40675;SDS011;26359;48.750;9.314;2022-09-20T06:53:03;7.38;;;4.75;;
40675;SDS011;26359;48.750;9.314;2022-09-20T06:55:31;6.32;;;3.97;;
40675;SDS011;26359;48.750;9.314;2022-09-20T06:58:06;10.93;;;5.22;;
40675;SDS011;26359;48.750;9.314;2022-09-20T07:00:33;5.85;;;4.45;;
40675;SDS011;26359;48.750;9.314;2022-09-20T07:02:58;5.75;;;4.05;;
40675;SDS011;26359;48.750;9.314;2022-09-20T07:05:24;7.38;;;4.28;;
40675;SDS011;26359;48.750;9.314;2022-09-20T07:07:54;10.73;;;4.05;;
40675;SDS011;26359;48.750;9.314;2022-09-20T07:10:21;13.05;;;4.50;;
40675;SDS011;26359;48.750;9.314;2022-09-20T07:12:46;27.08;;;5.28;;
40675;SDS011;26359;48.750;9.314;2022-09-20T07:15:13;19.95;;;4.82;;
40675;SDS011;26359;48.750;9.314;2022-09-20T07:17:43;18.98;;;4.95;;
40675;SDS011;26359;48.750;9.314;2022-09-20T07:20:09;7.55;;;5.10;;
40675;SDS011;26359;48.750;9.314;2022-09-20T07:22:35;8.82;;;5.03;;
40675;SDS011;26359;48.750;9.314;2022-09-20T07:25:00;8.90;;;4.97;;
40675;SDS011;26359;48.750;9.314;2022-09-20T07:27:26;6.82;;;5.00;;
40675;SDS011;26359;48.750;9.314;2022-09-20T07:29:53;10.82;;;4.65;;
40675;SDS011;26359;48.750;9.314;2022-09-20T07:32:20;7.63;;;5.28;;
40675;SDS011;26359;48.750;9.314;2022-09-20T07:34:46;10.50;;;5.25;;
40675;SDS011;26359;48.750;9.314;2022-09-20T07:37:11;8.20;;;6.07;;
40675;SDS011;26359;48.750;9.314;2022-09-20T07:39:37;7.43;;;4.90;;
40675;SDS011;26359;48.750;9.314;2022-09-20T07:42:03;9.10;;;4.68;;
40675;SDS011;26359;48.750;9.314;2022-09-20T07:44:30;6.32;;;4.32;;
40675;SDS011;26359;48.750;9.314;2022-09-20T07:46:57;7.72;;;4.40;;
40675;SDS011;26359;48.750;9.314;2022-09-20T07:49:24;9.57;;;4.90;;
40675;SDS011;26359;48.750;9.314;2022-09-20T07:51:52;8.52;;;4.97;;
40675;SDS011;26359;48.750;9.314;2022-09-20T07:54:18;8.50;;;5.80;;
40675;SDS011;26359;48.750;9.314;2022-09-20T07:56:44;10.75;;;5.68;;
40675;SDS011;26359;48.750;9.314;2022-09-20T07:59:10;14.48;;;6.03;;
40675;SDS011;26359;48.750;9.314;2022-09-20T08:01:37;8.07;;;6.30;;
40675;SDS011;26359;48.750;9.314;2022-09-20T08:04:04;14.73;;;5.28;;
40675;SDS011;26359;48.750;9.314;2022-09-20T08:06:30;9.10;;;5.03;;
40675;SDS011;26359;48.750;9.314;2022-09-20T08:08:56;11.02;;;4.85;;
40675;SDS011;26359;48.750;9.314;2022-09-20T08:11:22;10.45;;;4.93;;
40675;SDS011;26359;48.750;9.314;2022-09-20T08:13:50;10.75;;;5.28;;
40675;SDS011;26359;48.750;9.314;2022-09-20T08:16:17;11.10;;;4.85;;
40675;SDS011;26359;48.750;9.314;2022-09-20T08:18:44;9.85;;;4.25;;
40675;SDS011;26359;48.750;9.314;2022-09-20T08:21:11;9.52;;;5.75;;
40675;SDS011;26359;48.750;9.314;2022-09-20T08:23:38;8.93;;;5.07;;
40675;SDS011;26359;48.750;9.314;2022-09-20T08:26:06;10.85;;;6.30;;
40675;SDS011;26359;48.750;9.314;2022-09-20T08:28:33;8.75;;;5.35;;
40675;SDS011;26359;48.750;9.314;2022-09-20T08:31:05;8.23;;;4.60;;
40675;SDS011;26359;48.750;9.314;2022-09-20T08:33:32;11.73;;;4.75;;
40675;SDS011;26359;48.750;9.314;2022-09-20T08:36:01;9.88;;;4.13;;
40675;SDS011;26359;48.750;9.314;2022-09-20T08:38:26;9.43;;;5.35;;
40675;SDS011;26359;48.750;9.314;2022-09-20T08:40:54;13.80;;;6.28;;
40675;SDS011;26359;48.750;9.314;2022-09-20T08:43:26;11.35;;;10.20;;
40675;SDS011;26359;48.750;9.314;2022-09-20T08:45:56;14.60;;;6.07;;
40675;SDS011;26359;48.750;9.314;2022-09-20T08:48:27;12.48;;;7.82;;
40675;SDS011;26359;48.750;9.314;2022-09-20T08:51:02;8.57;;;4.38;;
40675;SDS011;26359;48.750;9.314;2022-09-20T08:53:30;8.43;;;5.10;;
40675;SDS011;26359;48.750;9.314;2022-09-20T08:55:57;10.35;;;5.57;;
40675;SDS011;26359;48.750;9.314;2022-09-20T08:58:24;8.10;;;5.05;;
40675;SDS011;26359;48.750;9.314;2022-09-20T09:00:50;11.23;;;8.80;;
40675;SDS011;26359;48.750;9.314;2022-09-20T09:03:17;13.05;;;5.88;;
40675;SDS011;26359;48.750;9.314;2022-09-20T09:05:44;9.68;;;5.60;;
40675;SDS011;26359;48.750;9.314;2022-09-20T09:08:15;10.57;;;5.03;;
40675;SDS011;26359;48.750;9.314;2022-09-20T09:10:47;9.55;;;4.63;;
40675;SDS011;26359;48.750;9.314;2022-09-20T09:13:21;8.40;;;3.88;;
40675;SDS011;26359;48.750;9.314;2022-09-20T09:15:57;11.40;;;4.57;;
40675;SDS011;26359;48.750;9.314;2022-09-20T09:18:30;10.43;;;6.32;;
40675;SDS011;26359;48.750;9.314;2022-09-20T09:20:59;9.82;;;6.35;;
40675;SDS011;26359;48.750;9.314;2022-09-20T09:23:28;9.85;;;6.38;;
40675;SDS011;26359;48.750;9.314;2022-09-20T09:25:56;7.60;;;4.95;;
40675;SDS011;26359;48.750;9.314;2022-09-20T09:28:29;12.10;;;4.57;;
40675;SDS011;26359;48.750;9.314;2022-09-20T09:31:11;13.15;;;4.78;;
40675;SDS011;26359;48.750;9.314;2022-09-20T09:33:57;10.85;;;7.88;;
40675;SDS011;26359;48.750;9.314;2022-09-20T09:36:23;13.88;;;12.57;;
40675;SDS011;26359;48.750;9.314;2022-09-20T09:38:50;13.70;;;9.75;;
40675;SDS011;26359;48.750;9.314;2022-09-20T09:41:36;10.88;;;4.80;;
40675;SDS011;26359;48.750;9.314;2022-09-20T09:44:05;8.77;;;6.95;;
40675;SDS011;26359;48.750;9.314;2022-09-20T09:46:42;8.13;;;6.28;;
40675;SDS011;26359;48.750;9.314;2022-09-20T09:49:15;16.08;;;8.00;;
40675;SDS011;26359;48.750;9.314;2022-09-20T09:54:25;10.93;;;6.07;;
40675;SDS011;26359;48.750;9.314;2022-09-20T09:59:36;10.18;;;9.18;;
40675;SDS011;26359;48.750;9.314;2022-09-20T10:02:48;8.02;;;5.03;;
40675;SDS011;26359;48.750;9.314;2022-09-20T10:16:41;13.25;;;11.68;;
40675;SDS011;26359;48.750;9.314;2022-09-20T10:19:14;17.20;;;6.25;;
40675;SDS011;26359;48.750;9.314;2022-09-20T10:27:27;12.15;;;7.72;;
40675;SDS011;26359;48.750;9.314;2022-09-20T10:35:24;7.00;;;5.85;;
40675;SDS011;26359;48.750;9.314;2022-09-20T10:38:15;10.27;;;6.47;;
40675;SDS011;26359;48.750;9.314;2022-09-20T10:40:49;9.95;;;4.93;;
40675;SDS011;26359;48.750;9.314;2022-09-20T10:43:55;8.93;;;5.90;;
40675;SDS011;26359;48.750;9.314;2022-09-20T10:49:02;7.55;;;4.82;;
40675;SDS011;26359;48.750;9.314;2022-09-20T10:51:44;9.80;;;5.53;;
40675;SDS011;26359;48.750;9.314;2022-09-20T10:57:01;7.05;;;4.30;;
40675;SDS011;26359;48.750;9.314;2022-09-20T11:07:55;10.43;;;5.32;;
40675;SDS011;26359;48.750;9.314;2022-09-20T11:11:27;7.97;;;5.25;;
40675;SDS011;26359;48.750;9.314;2022-09-20T11:16:28;7.78;;;6.97;;
40675;SDS011;26359;48.750;9.314;2022-09-20T11:21:59;9.32;;;7.03;;
40675;SDS011;26359;48.750;9.314;2022-09-20T11:27:22;21.50;;;19.85;;
40675;SDS011;26359;48.750;9.314;2022-09-20T11:37:36;16.02;;;13.80;;
40675;SDS011;26359;48.750;9.314;2022-09-20T11:40:10;21.83;;;20.27;;
40675;SDS011;26359;48.750;9.314;2022-09-20T11:42:54;23.45;;;21.73;;
40675;SDS011;26359;48.750;9.314;2022-09-20T11:45:23;21.20;;;19.88;;
40675;SDS011;26359;48.750;9.314;2022-09-20T11:47:51;28.33;;;25.92;;
40675;SDS011;26359;48.750;9.314;2022-09-20T11:50:50;16.77;;;15.45;;
40675;SDS011;26359;48.750;9.314;2022-09-20T11:58:54;9.43;;;8.18;;
40675;SDS011;26359;48.750;9.314;2022-09-20T12:01:36;7.82;;;6.85;;
40675;SDS011;26359;48.750;9.314;2022-09-20T12:06:43;11.57;;;7.68;;
40675;SDS011;26359;48.750;9.314;2022-09-20T12:09:22;8.40;;;7.57;;
40675;SDS011;26359;48.750;9.314;2022-09-20T12:11:52;4.78;;;4.38;;
40675;SDS011;26359;48.750;9.314;2022-09-20T12:14:21;7.03;;;5.57;;
40675;SDS011;26359;48.750;9.314;2022-09-20T12:16:52;10.52;;;6.82;;
40675;SDS011;26359;48.750;9.314;2022-09-20T12:24:22;8.25;;;6.53;;
40675;SDS011;26359;48.750;9.314;2022-09-20T12:26:56;8.75;;;6.15;;
40675;SDS011;26359;48.750;9.314;2022-09-20T12:31:54;12.10;;;5.25;;
40675;SDS011;26359;48.750;9.314;2022-09-20T12:39:22;10.23;;;6.57;;
40675;SDS011;26359;48.750;9.314;2022-09-20T12:41:54;7.28;;;6.55;;
40675;SDS011;26359;48.750;9.314;2022-09-20T12:49:35;12.20;;;11.07;;
40675;SDS011;26359;48.750;9.314;2022-09-20T12:58:32;7.22;;;5.30;;
40675;SDS011;26359;48.750;9.314;2022-09-20T13:03:41;7.07;;;6.20;;
40675;SDS011;26359;48.750;9.314;2022-09-20T13:08:48;8.30;;;5.13;;
40675;SDS011;26359;48.750;9.314;2022-09-20T13:11:41;6.50;;;5.35;;
40675;SDS011;26359;48.750;9.314;2022-09-20T13:19:18;9.63;;;6.22;;
40675;SDS011;26359;48.750;9.314;2022-09-20T13:24:42;7.85;;;7.15;;
40675;SDS011;26359;48.750;9.314;2022-09-20T13:27:11;7.40;;;6.10;;
40675;SDS011;26359;48.750;9.314;2022-09-20T13:29:42;7.57;;;6.97;;
40675;SDS011;26359;48.750;9.314;2022-09-20T13:34:40;7.03;;;6.35;;
40675;SDS011;26359;48.750;9.314;2022-09-20T13:37:07;6.82;;;6.15;;
40675;SDS011;26359;48.750;9.314;2022-09-20T13:39:44;11.93;;;6.05;;
40675;SDS011;26359;48.750;9.314;2022-09-20T13:42:11;11.25;;;5.88;;
40675;SDS011;26359;48.750;9.314;2022-09-20T13:44:40;5.93;;;4.80;;
40675;SDS011;26359;48.750;9.314;2022-09-20T13:47:40;4.53;;;3.80;;
40675;SDS011;26359;48.750;9.314;2022-09-20T13:50:15;5.90;;;3.75;;
40675;SDS011;26359;48.750;9.314;2022-09-20T13:52:46;6.97;;;4.43;;
40675;SDS011;26359;48.750;9.314;2022-09-20T13:55:26;5.90;;;4.57;;
40675;SDS011;26359;48.750;9.314;2022-09-20T13:58:00;5.90;;;5.40;;
40675;SDS011;26359;48.750;9.314;2022-09-20T14:00:50;7.95;;;5.57;;
40675;SDS011;26359;48.750;9.314;2022-09-20T14:03:19;5.80;;;4.22;;
40675;SDS011;26359;48.750;9.314;2022-09-20T14:05:46;7.05;;;4.97;;
40675;SDS011;26359;48.750;9.314;2022-09-20T14:08:19;7.65;;;6.70;;
40675;SDS011;26359;48.750;9.314;2022-09-20T14:11:10;7.10;;;6.00;;
40675;SDS011;26359;48.750;9.314;2022-09-20T14:13:45;5.82;;;5.03;;
40675;SDS011;26359;48.750;9.314;2022-09-20T14:16:42;11.48;;;5.18;;
40675;SDS011;26359;48.750;9.314;2022-09-20T14:19:10;7.97;;;4.43;;
40675;SDS011;26359;48.750;9.314;2022-09-20T14:21:39;7.25;;;4.22;;
40675;SDS011;26359;48.750;9.314;2022-09-20T14:26:41;6.85;;;4.07;;
40675;SDS011;26359;48.750;9.314;2022-09-20T14:31:51;5.38;;;4.85;;
40675;SDS011;26359;48.750;9.314;2022-09-20T14:34:17;11.10;;;10.10;;
40675;SDS011;26359;48.750;9.314;2022-09-20T14:36:43;8.55;;;6.35;;
40675;SDS011;26359;48.750;9.314;2022-09-20T14:39:13;12.05;;;11.15;;
40675;SDS011;26359;48.750;9.314;2022-09-20T14:41:42;9.27;;;8.38;;
40675;SDS011;26359;48.750;9.314;2022-09-20T14:44:31;17.10;;;15.70;;
40675;SDS011;26359;48.750;9.314;2022-09-20T14:46:57;11.35;;;10.38;;
40675;SDS011;26359;48.750;9.314;2022-09-20T14:51:49;7.70;;;6.22;;
40675;SDS011;26359;48.750;9.314;2022-09-20T14:54:28;7.63;;;5.10;;
40675;SDS011;26359;48.750;9.314;2022-09-20T14:56:54;6.95;;;4.25;;
40675;SDS011;26359;48.750;9.314;2022-09-20T14:59:27;8.57;;;4.82;;
40675;SDS011;26359;48.750;9.314;2022-09-20T15:02:02;5.70;;;4.22;;
40675;SDS011;26359;48.750;9.314;2022-09-20T15:04:38;13.95;;;12.80;;
40675;SDS011;26359;48.750;9.314;2022-09-20T15:07:06;8.80;;;8.00;;
40675;SDS011;26359;48.750;9.314;2022-09-20T15:09:37;8.73;;;5.88;;
40675;SDS011;26359;48.750;9.314;2022-09-20T15:14:34;7.40;;;6.70;;
40675;SDS011;26359;48.750;9.314;2022-09-20T15:17:00;8.25;;;7.38;;
40675;SDS011;26359;48.750;9.314;2022-09-20T15:19:26;8.27;;;7.30;;
40675;SDS011;26359;48.750;9.314;2022-09-20T15:21:52;10.48;;;9.73;;
40675;SDS011;26359;48.750;9.314;2022-09-20T15:24:17;11.52;;;9.00;;
40675;SDS011;26359;48.750;9.314;2022-09-20T15:26:43;7.03;;;5.40;;
40675;SDS011;26359;48.750;9.314;2022-09-20T15:29:12;14.82;;;13.65;;
40675;SDS011;26359;48.750;9.314;2022-09-20T15:31:40;6.90;;;6.22;;
40675;SDS011;26359;48.750;9.314;2022-09-20T15:34:05;8.68;;;6.93;;
40675;SDS011;26359;48.750;9.314;2022-09-20T15:36:31;6.90;;;5.88;;
40675;SDS011;26359;48.750;9.314;2022-09-20T15:38:56;8.70;;;7.82;;
40675;SDS011;26359;48.750;9.314;2022-09-20T15:41:22;11.75;;;10.65;;
40675;SDS011;26359;48.750;9.314;2022-09-20T15:43:48;8.20;;;7.60;;
40675;SDS011;26359;48.750;9.314;2022-09-20T15:46:18;7.97;;;6.68;;
40675;SDS011;26359;48.750;9.314;2022-09-20T15:48:45;7.95;;;7.45;;
40675;SDS011;26359;48.750;9.314;2022-09-20T15:51:11;8.68;;;7.82;;
40675;SDS011;26359;48.750;9.314;2022-09-20T15:53:40;8.15;;;5.32;;
40675;SDS011;26359;48.750;9.314;2022-09-20T15:58:42;8.40;;;7.43;;
40675;SDS011;26359;48.750;9.314;2022-09-20T16:01:12;15.80;;;14.80;;
40675;SDS011;26359;48.750;9.314;2022-09-20T16:03:40;13.75;;;12.73;;
40675;SDS011;26359;48.750;9.314;2022-09-20T16:06:06;7.38;;;6.75;;
40675;SDS011;26359;48.750;9.314;2022-09-20T16:08:32;8.95;;;8.20;;
40675;SDS011;26359;48.750;9.314;2022-09-20T16:10:59;9.50;;;8.68;;
40675;SDS011;26359;48.750;9.314;2022-09-20T16:13:25;9.10;;;8.27;;
40675;SDS011;26359;48.750;9.314;2022-09-20T16:15:58;9.63;;;8.93;;
40675;SDS011;26359;48.750;9.314;2022-09-20T16:18:28;8.48;;;6.70;;
40675;SDS011;26359;48.750;9.314;2022-09-20T16:21:14;8.05;;;7.30;;
40675;SDS011;26359;48.750;9.314;2022-09-20T16:23:41;8.10;;;7.50;;
40675;SDS011;26359;48.750;9.314;2022-09-20T16:26:11;8.38;;;7.68;;
40675;SDS011;26359;48.750;9.314;2022-09-20T16:28:37;9.57;;;8.90;;
40675;SDS011;26359;48.750;9.314;2022-09-20T16:34:26;12.55;;;11.60;;
40675;SDS011;26359;48.750;9.314;2022-09-20T16:36:55;6.38;;;5.88;;
40675;SDS011;26359;48.750;9.314;2022-09-20T16:39:26;7.85;;;7.28;;
40675;SDS011;26359;48.750;9.314;2022-09-20T16:41:53;15.20;;;14.25;;
40675;SDS011;26359;48.750;9.314;2022-09-20T16:44:21;6.00;;;5.60;;
40675;SDS011;26359;48.750;9.314;2022-09-20T16:46:47;7.35;;;6.75;;
40675;SDS011;26359;48.750;9.314;2022-09-20T16:49:12;7.38;;;6.85;;
40675;SDS011;26359;48.750;9.314;2022-09-20T16:51:41;7.85;;;6.88;;
40675;SDS011;26359;48.750;9.314;2022-09-20T16:54:11;5.70;;;5.13;;
40675;SDS011;26359;48.750;9.314;2022-09-20T16:56:39;6.05;;;4.40;;
40675;SDS011;26359;48.750;9.314;2022-09-20T16:59:06;6.55;;;4.30;;
40675;SDS011;26359;48.750;9.314;2022-09-20T17:01:32;5.78;;;4.68;;
40675;SDS011;26359;48.750;9.314;2022-09-20T17:04:00;9.25;;;8.55;;
40675;SDS011;26359;48.750;9.314;2022-09-20T17:06:29;12.27;;;11.48;;
40675;SDS011;26359;48.750;9.314;2022-09-20T17:08:55;22.17;;;20.60;;
40675;SDS011;26359;48.750;9.314;2022-09-20T17:11:23;8.80;;;8.25;;
40675;SDS011;26359;48.750;9.314;2022-09-20T17:13:51;8.68;;;8.07;;
40675;SDS011;26359;48.750;9.314;2022-09-20T17:16:18;8.75;;;7.97;;
40675;SDS011;26359;48.750;9.314;2022-09-20T17:18:49;13.75;;;12.88;;
40675;SDS011;26359;48.750;9.314;2022-09-20T17:21:17;14.55;;;13.55;;
40675;SDS011;26359;48.750;9.314;2022-09-20T17:23:43;10.02;;;9.20;;
40675;SDS011;26359;48.750;9.314;2022-09-20T17:26:14;8.05;;;6.60;;
40675;SDS011;26359;48.750;9.314;2022-09-20T17:28:42;5.80;;;5.25;;
40675;SDS011;26359;48.750;9.314;2022-09-20T17:31:16;15.75;;;14.65;;
40675;SDS011;26359;48.750;9.314;2022-09-20T17:33:44;7.50;;;6.72;;
40675;SDS011;26359;48.750;9.314;2022-09-20T17:36:14;7.43;;;6.72;;
40675;SDS011;26359;48.750;9.314;2022-09-20T17:38:43;9.52;;;8.65;;
40675;SDS011;26359;48.750;9.314;2022-09-20T17:41:17;8.95;;;8.25;;
40675;SDS011;26359;48.750;9.314;2022-09-20T17:43:43;10.35;;;9.55;;
40675;SDS011;26359;48.750;9.314;2022-09-20T17:48:41;9.77;;;8.82;;
40675;SDS011;26359;48.750;9.314;2022-09-20T17:51:13;11.07;;;10.05;;
40675;SDS011;26359;48.750;9.314;2022-09-20T17:53:39;12.15;;;11.25;;
40675;SDS011;26359;48.750;9.314;2022-09-20T17:56:05;10.82;;;9.93;;
40675;SDS011;26359;48.750;9.314;2022-09-20T17:58:32;12.00;;;11.20;;
40675;SDS011;26359;48.750;9.314;2022-09-20T18:01:33;11.38;;;10.38;;
40675;SDS011;26359;48.750;9.314;2022-09-20T18:03:52;9.50;;;8.75;;
40675;SDS011;26359;48.750;9.314;2022-09-20T18:06:23;7.70;;;6.85;;
40675;SDS011;26359;48.750;9.314;2022-09-20T18:08:55;9.40;;;8.70;;
40675;SDS011;26359;48.750;9.314;2022-09-20T18:11:23;6.88;;;6.25;;
40675;SDS011;26359;48.750;9.314;2022-09-20T18:13:55;7.93;;;7.22;;
40675;SDS011;26359;48.750;9.314;2022-09-20T18:16:24;8.38;;;7.03;;
40675;SDS011;26359;48.750;9.314;2022-09-20T18:18:50;9.00;;;8.30;;
40675;SDS011;26359;48.750;9.314;2022-09-20T18:21:16;9.60;;;7.93;;
40675;SDS011;26359;48.750;9.314;2022-09-20T18:23:44;9.73;;;5.68;;
40675;SDS011;26359;48.750;9.314;2022-09-20T18:26:21;8.63;;;7.57;;
40675;SDS011;26359;48.750;9.314;2022-09-20T18:29:01;9.77;;;8.45;;
40675;SDS011;26359;48.750;9.314;2022-09-20T18:31:30;7.65;;;6.15;;
40675;SDS011;26359;48.750;9.314;2022-09-20T18:33:59;8.20;;;7.40;;
40675;SDS011;26359;48.750;9.314;2022-09-20T18:36:27;8.43;;;7.60;;
40675;SDS011;26359;48.750;9.314;2022-09-20T18:38:54;9.05;;;8.13;;
40675;SDS011;26359;48.750;9.314;2022-09-20T18:41:25;10.13;;;9.20;;
40675;SDS011;26359;48.750;9.314;2022-09-20T18:43:55;7.95;;;7.25;;
40675;SDS011;26359;48.750;9.314;2022-09-20T18:46:22;10.13;;;7.57;;
40675;SDS011;26359;48.750;9.314;2022-09-20T18:48:55;12.23;;;11.20;;
40675;SDS011;26359;48.750;9.314;2022-09-20T18:51:29;11.55;;;10.45;;
40675;SDS011;26359;48.750;9.314;2022-09-20T18:53:55;10.45;;;9.45;;
40675;SDS011;26359;48.750;9.314;2022-09-20T18:56:22;10.80;;;9.80;;
40675;SDS011;26359;48.750;9.314;2022-09-20T18:58:51;12.60;;;11.40;;
40675;SDS011;26359;48.750;9.314;2022-09-20T19:01:25;11.80;;;10.70;;
40675;SDS011;26359;48.750;9.314;2022-09-20T19:06:41;10.90;;;9.55;;
40675;SDS011;26359;48.750;9.314;2022-09-20T19:09:19;10.27;;;8.68;;
40675;SDS011;26359;48.750;9.314;2022-09-20T19:11:54;11.32;;;10.20;;
40675;SDS011;26359;48.750;9.314;2022-09-20T19:14:30;13.60;;;10.65;;
40675;SDS011;26359;48.750;9.314;2022-09-20T19:17:06;13.70;;;12.48;;
40675;SDS011;26359;48.750;9.314;2022-09-20T19:19:53;14.32;;;13.02;;
40675;SDS011;26359;48.750;9.314;2022-09-20T19:22:30;10.50;;;8.38;;
40675;SDS011;26359;48.750;9.314;2022-09-20T19:25:09;11.25;;;10.02;;
40675;SDS011;26359;48.750;9.314;2022-09-20T19:27:42;11.82;;;8.95;;
40675;SDS011;26359;48.750;9.314;2022-09-20T19:30:11;9.20;;;8.30;;
40675;SDS011;26359;48.750;9.314;2022-09-20T19:32:38;11.20;;;10.07;;
40675;SDS011;26359;48.750;9.314;2022-09-20T19:35:03;9.32;;;7.65;;
40675;SDS011;26359;48.750;9.314;2022-09-20T19:50:36;9.70;;;8.45;;
40675;SDS011;26359;48.750;9.314;2022-09-20T19:53:09;12.05;;;10.55;;
40675;SDS011;26359;48.750;9.314;2022-09-20T19:55:36;16.52;;;11.73;;
40675;SDS011;26359;48.750;9.314;2022-09-20T19:58:02;10.98;;;9.45;;
40675;SDS011;26359;48.750;9.314;2022-09-20T20:00:28;9.73;;;8.45;;
40675;SDS011;26359;48.750;9.314;2022-09-20T20:02:55;11.48;;;7.78;;
40675;SDS011;26359;48.750;9.314;2022-09-20T20:05:21;8.88;;;7.20;;
40675;SDS011;26359;48.750;9.314;2022-09-20T20:10:55;9.80;;;8.93;;
40675;SDS011;26359;48.750;9.314;2022-09-20T20:13:36;9.02;;;7.80;;
40675;SDS011;26359;48.750;9.314;2022-09-20T20:16:32;8.63;;;6.95;;
40675;SDS011;26359;48.750;9.314;2022-09-20T20:21:57;9.57;;;6.82;;
40675;SDS011;26359;48.750;9.314;2022-09-20T20:24:49;7.03;;;6.32;;
40675;SDS011;26359;48.750;9.314;2022-09-20T20:27:16;9.75;;;6.47;;
40675;SDS011;26359;48.750;9.314;2022-09-20T20:29:42;7.40;;;6.55;;
40675;SDS011;26359;48.750;9.314;2022-09-20T20:32:08;8.55;;;7.05;;
40675;SDS011;26359;48.750;9.314;2022-09-20T20:34:34;12.93;;;7.88;;
40675;SDS011;26359;48.750;9.314;2022-09-20T20:37:02;19.27;;;14.00;;
40675;SDS011;26359;48.750;9.314;2022-09-20T20:39:28;16.90;;;12.00;;
40675;SDS011;26359;48.750;9.314;2022-09-20T20:41:56;16.02;;;10.85;;
40675;SDS011;26359;48.750;9.314;2022-09-20T20:44:25;15.25;;;11.35;;
40675;SDS011;26359;48.750;9.314;2022-09-20T20:46:54;14.77;;;9.82;;
40675;SDS011;26359;48.750;9.314;2022-09-20T20:49:20;12.18;;;9.45;;